PWSweather.com
Personal Weather Stations
Station Observations
KOMOKA
Komoka Village, Komoka, ON N0L IRO

Komoka VillageKomoka, ON N0L IRO

Lat: 42.9542444, Lon: -81.4348861

Elevation: 805

Station Type: Davis Vantage Pro 2

www.komokaweather.com

High Low Average
Temperature 56.8°F13.8°C 48.6°F9.2°C 52.4°F11.3°C
Dew Point 49.1°F9.5°C 40.6°F4.8°C 44.2°F6.8°C
Winds 9.0 mph 14.5 kmh Calm Calm 4.0 mph N6.4 kmh N
Wind Gusts 28.0 mph45.1 kmh -- 11.0 mph17.7 kmh
Humidity 76% 69% 74%
Pressure 30.00 in1015.9 mb 29.85 in1010.8 mb -
Precipitation 0.28 in7.1 mm - -
Hour Temp Dew Point Humidity Winds Wind Gusts Pressure Precip Precip Rate Daily Precip Total
12:02 AM 53.2°F11.8°C 43.7°F6.5°C 70% 7.0 mph N11.3 kmh N 17.0 mph27.4 kmh 29.96 in1014.6 mb 0.00 in0.0 mm 0.00 in0.0 mm 0.00 in0.0 mm
12:09 AM 53.2°F11.8°C 43.7°F6.5°C 70% 8.0 mph N12.9 kmh N 19.0 mph30.6 kmh 29.96 in1014.6 mb 0.00 in0.0 mm 0.00 in0.0 mm 0.00 in0.0 mm
12:16 AM 53.2°F11.8°C 43.7°F6.5°C 70% 8.0 mph N12.9 kmh N 19.0 mph30.6 kmh 29.95 in1014.2 mb 0.00 in0.0 mm 0.00 in0.0 mm 0.00 in0.0 mm
12:23 AM 53.2°F11.8°C 43.7°F6.5°C 70% 7.0 mph N11.3 kmh N 17.0 mph27.4 kmh 29.95 in1014.2 mb 0.00 in0.0 mm 0.00 in0.0 mm 0.00 in0.0 mm
12:30 AM 53.1°F11.7°C 43.5°F6.4°C 70% 7.0 mph N11.3 kmh N 17.0 mph27.4 kmh 29.96 in1014.6 mb 0.00 in0.0 mm 0.00 in0.0 mm 0.00 in0.0 mm
12:37 AM 52.9°F11.6°C 43.3°F6.3°C 70% 5.0 mph N8.0 kmh N 13.0 mph20.9 kmh 29.95 in1014.2 mb 0.00 in0.0 mm 0.00 in0.0 mm 0.00 in0.0 mm
12:44 AM 52.7°F11.5°C 43.2°F6.2°C 70% 8.0 mph N12.9 kmh N 20.0 mph32.2 kmh 29.96 in1014.6 mb 0.00 in0.0 mm 0.00 in0.0 mm 0.00 in0.0 mm
12:51 AM 52.5°F11.4°C 42.8°F6.0°C 69% 9.0 mph N14.5 kmh N 20.0 mph32.2 kmh 29.95 in1014.2 mb 0.00 in0.0 mm 0.00 in0.0 mm 0.00 in0.0 mm
12:58 AM 52.5°F11.4°C 43.2°F6.2°C 70% 7.0 mph N11.3 kmh N 16.0 mph25.7 kmh 29.96 in1014.6 mb 0.00 in0.0 mm 0.00 in0.0 mm 0.00 in0.0 mm
01:05 AM 52.5°F11.4°C 43.0°F6.1°C 70% 5.0 mph N8.0 kmh N 13.0 mph20.9 kmh 29.95 in1014.2 mb 0.00 in0.0 mm 0.00 in0.0 mm 0.00 in0.0 mm
01:12 AM 52.3°F11.3°C 42.8°F6.0°C 70% 7.0 mph N11.3 kmh N 15.0 mph24.1 kmh 29.95 in1014.2 mb 0.00 in0.0 mm 0.00 in0.0 mm 0.00 in0.0 mm
01:19 AM 52.2°F11.2°C 42.6°F5.9°C 70% 7.0 mph N11.3 kmh N 15.0 mph24.1 kmh 29.96 in1014.6 mb 0.00 in0.0 mm 0.00 in0.0 mm 0.00 in0.0 mm
01:26 AM 52.0°F11.1°C 42.4°F5.8°C 70% 8.0 mph N12.9 kmh N 17.0 mph27.4 kmh 29.95 in1014.2 mb 0.00 in0.0 mm 0.00 in0.0 mm 0.00 in0.0 mm
01:33 AM 52.0°F11.1°C 42.4°F5.8°C 70% 9.0 mph N14.5 kmh N 23.0 mph37.0 kmh 29.96 in1014.6 mb 0.00 in0.0 mm 0.00 in0.0 mm 0.00 in0.0 mm
01:40 AM 52.0°F11.1°C 42.1°F5.6°C 69% 8.0 mph N12.9 kmh N 28.0 mph45.1 kmh 29.96 in1014.6 mb 0.00 in0.0 mm 0.00 in0.0 mm 0.00 in0.0 mm
01:47 AM 51.8°F11.0°C 41.9°F5.5°C 69% 8.0 mph N12.9 kmh N 19.0 mph30.6 kmh 29.95 in1014.2 mb 0.00 in0.0 mm 0.00 in0.0 mm 0.00 in0.0 mm
01:54 AM 51.6°F10.9°C 41.9°F5.5°C 69% 8.0 mph N12.9 kmh N 19.0 mph30.6 kmh 29.95 in1014.2 mb 0.00 in0.0 mm 0.00 in0.0 mm 0.00 in0.0 mm
02:01 AM 51.6°F10.9°C 41.7°F5.4°C 69% 8.0 mph N12.9 kmh N 20.0 mph32.2 kmh 29.96 in1014.6 mb 0.00 in0.0 mm 0.00 in0.0 mm 0.00 in0.0 mm
02:14 AM 51.4°F10.8°C 42.1°F5.6°C 70% 7.0 mph N11.3 kmh N 12.0 mph19.3 kmh 29.96 in1014.6 mb 0.00 in0.0 mm 0.00 in0.0 mm 0.00 in0.0 mm
02:21 AM 51.4°F10.8°C 41.9°F5.5°C 70% 5.0 mph N8.0 kmh N 13.0 mph20.9 kmh 29.96 in1014.6 mb 0.00 in0.0 mm 0.00 in0.0 mm 0.00 in0.0 mm
02:28 AM 51.4°F10.8°C 41.9°F5.5°C 70% 7.0 mph N11.3 kmh N 17.0 mph27.4 kmh 29.96 in1014.6 mb 0.00 in0.0 mm 0.00 in0.0 mm 0.00 in0.0 mm
02:35 AM 51.3°F10.7°C 41.9°F5.5°C 70% 5.0 mph N8.0 kmh N 12.0 mph19.3 kmh 29.96 in1014.6 mb 0.00 in0.0 mm 0.00 in0.0 mm 0.00 in0.0 mm
02:42 AM 51.3°F10.7°C 41.7°F5.4°C 70% 4.0 mph N6.4 kmh N 12.0 mph19.3 kmh 29.95 in1014.2 mb 0.00 in0.0 mm 0.00 in0.0 mm 0.00 in0.0 mm
02:49 AM 51.1°F10.6°C 41.7°F5.4°C 70% 5.0 mph N8.0 kmh N 23.0 mph37.0 kmh 29.95 in1014.2 mb 0.00 in0.0 mm 0.00 in0.0 mm 0.00 in0.0 mm
02:56 AM 51.1°F10.6°C 41.7°F5.4°C 70% 7.0 mph N11.3 kmh N 23.0 mph37.0 kmh 29.95 in1014.2 mb 0.00 in0.0 mm 0.00 in0.0 mm 0.00 in0.0 mm
03:03 AM 51.1°F10.6°C 41.4°F5.2°C 69% 8.0 mph N12.9 kmh N 16.0 mph25.7 kmh 29.94 in1013.9 mb 0.00 in0.0 mm 0.00 in0.0 mm 0.00 in0.0 mm
03:10 AM 51.1°F10.6°C 41.4°F5.2°C 69% 7.0 mph N11.3 kmh N 16.0 mph25.7 kmh 29.94 in1013.9 mb 0.00 in0.0 mm 0.00 in0.0 mm 0.00 in0.0 mm
03:17 AM 51.1°F10.6°C 41.2°F5.1°C 69% 5.0 mph N8.0 kmh N 13.0 mph20.9 kmh 29.95 in1014.2 mb 0.00 in0.0 mm 0.00 in0.0 mm 0.00 in0.0 mm
03:24 AM 50.9°F10.5°C 41.0°F5.0°C 69% 5.0 mph N8.0 kmh N 15.0 mph24.1 kmh 29.94 in1013.9 mb 0.00 in0.0 mm 0.00 in0.0 mm 0.00 in0.0 mm
03:31 AM 51.1°F10.6°C 41.2°F5.1°C 69% 5.0 mph N8.0 kmh N 13.0 mph20.9 kmh 29.94 in1013.9 mb 0.00 in0.0 mm 0.00 in0.0 mm 0.00 in0.0 mm
03:38 AM 50.9°F10.5°C 41.0°F5.0°C 69% 7.0 mph N11.3 kmh N 15.0 mph24.1 kmh 29.93 in1013.5 mb 0.00 in0.0 mm 0.00 in0.0 mm 0.00 in0.0 mm
03:45 AM 51.1°F10.6°C 41.2°F5.1°C 69% 7.0 mph N11.3 kmh N 15.0 mph24.1 kmh 29.94 in1013.9 mb 0.00 in0.0 mm 0.00 in0.0 mm 0.00 in0.0 mm
03:52 AM 51.1°F10.6°C 41.2°F5.1°C 69% 5.0 mph N8.0 kmh N 12.0 mph19.3 kmh 29.94 in1013.9 mb 0.00 in0.0 mm 0.00 in0.0 mm 0.00 in0.0 mm
03:59 AM 51.1°F10.6°C 41.4°F5.2°C 69% 5.0 mph N8.0 kmh N 12.0 mph19.3 kmh 29.94 in1013.9 mb 0.00 in0.0 mm 0.00 in0.0 mm 0.00 in0.0 mm
04:06 AM 51.1°F10.6°C 41.2°F5.1°C 69% 5.0 mph N8.0 kmh N 20.0 mph32.2 kmh 29.95 in1014.2 mb 0.00 in0.0 mm 0.00 in0.0 mm 0.00 in0.0 mm
04:13 AM 50.7°F10.4°C 40.8°F4.9°C 69% 4.0 mph N6.4 kmh N 15.0 mph24.1 kmh 29.96 in1014.6 mb 0.02 in0.5 mm 0.17 in4.3 mm 0.02 in0.5 mm
04:20 AM 50.2°F10.1°C 40.8°F4.9°C 70% 5.0 mph N8.0 kmh N 11.0 mph17.7 kmh 29.97 in1014.9 mb 0.03 in0.8 mm 0.09 in2.3 mm 0.03 in0.8 mm
04:27 AM 49.6°F9.8°C 40.6°F4.8°C 71% 5.0 mph N8.0 kmh N 15.0 mph24.1 kmh 29.95 in1014.2 mb 0.06 in1.5 mm 0.26 in6.6 mm 0.06 in1.5 mm
04:34 AM 49.5°F9.7°C 40.8°F4.9°C 72% 5.0 mph N8.0 kmh N 15.0 mph24.1 kmh 29.96 in1014.6 mb 0.09 in2.3 mm 0.26 in6.6 mm 0.09 in2.3 mm
04:41 AM 49.1°F9.5°C 40.8°F4.9°C 73% 4.0 mph N6.4 kmh N 7.0 mph11.3 kmh 29.95 in1014.2 mb 0.12 in3.0 mm 0.26 in6.6 mm 0.12 in3.0 mm
04:48 AM 48.9°F9.4°C 41.0°F5.0°C 74% 4.0 mph N6.4 kmh N 8.0 mph12.9 kmh 29.95 in1014.2 mb 0.14 in3.6 mm 0.17 in4.3 mm 0.14 in3.6 mm
04:55 AM 48.9°F9.4°C 41.0°F5.0°C 74% 4.0 mph N6.4 kmh N 15.0 mph24.1 kmh 29.94 in1013.9 mb 0.16 in4.1 mm 0.17 in4.3 mm 0.16 in4.1 mm
05:02 AM 48.7°F9.3°C 40.8°F4.9°C 74% 4.0 mph N6.4 kmh N 13.0 mph20.9 kmh 29.94 in1013.9 mb 0.17 in4.3 mm 0.01 in0.3 mm 0.17 in4.3 mm
05:09 AM 48.7°F9.3°C 40.8°F4.9°C 74% 7.0 mph N11.3 kmh N 17.0 mph27.4 kmh 29.96 in1014.6 mb 0.17 in4.3 mm 0.00 in0.0 mm 0.18 in4.6 mm
05:16 AM 48.7°F9.3°C 40.8°F4.9°C 74% 7.0 mph N11.3 kmh N 15.0 mph24.1 kmh 29.95 in1014.2 mb 0.17 in4.3 mm 0.00 in0.0 mm 0.19 in4.8 mm
05:23 AM 48.7°F9.3°C 40.8°F4.9°C 74% 7.0 mph N11.3 kmh N 15.0 mph24.1 kmh 29.93 in1013.5 mb 0.16 in4.1 mm 0.00 in0.0 mm 0.20 in5.1 mm
05:30 AM 48.7°F9.3°C 40.8°F4.9°C 74% 7.0 mph N11.3 kmh N 17.0 mph27.4 kmh 29.93 in1013.5 mb 0.12 in3.0 mm 0.00 in0.0 mm 0.20 in5.1 mm
05:37 AM 48.6°F9.2°C 40.6°F4.8°C 74% 7.0 mph N11.3 kmh N 19.0 mph30.6 kmh 29.92 in1013.2 mb 0.09 in2.3 mm 0.00 in0.0 mm 0.20 in5.1 mm
05:44 AM 48.6°F9.2°C 40.6°F4.8°C 74% 7.0 mph N11.3 kmh N 19.0 mph30.6 kmh 29.92 in1013.2 mb 0.07 in1.8 mm 0.00 in0.0 mm 0.20 in5.1 mm
05:51 AM 48.6°F9.2°C 40.6°F4.8°C 74% 8.0 mph N12.9 kmh N 19.0 mph30.6 kmh 29.93 in1013.5 mb 0.06 in1.5 mm 0.00 in0.0 mm 0.20 in5.1 mm
05:58 AM 48.6°F9.2°C 40.6°F4.8°C 74% 7.0 mph N11.3 kmh N 15.0 mph24.1 kmh 29.92 in1013.2 mb 0.05 in1.3 mm 0.00 in0.0 mm 0.21 in5.3 mm
06:05 AM 48.6°F9.2°C 40.6°F4.8°C 74% 7.0 mph N11.3 kmh N 16.0 mph25.7 kmh 29.93 in1013.5 mb 0.03 in0.8 mm 0.00 in0.0 mm 0.21 in5.3 mm
06:12 AM 48.6°F9.2°C 40.6°F4.8°C 74% 5.0 mph N8.0 kmh N 16.0 mph25.7 kmh 29.95 in1014.2 mb 0.02 in0.5 mm 0.00 in0.0 mm 0.21 in5.3 mm
06:19 AM 48.6°F9.2°C 40.6°F4.8°C 74% 5.0 mph N8.0 kmh N 15.0 mph24.1 kmh 29.94 in1013.9 mb 0.02 in0.5 mm 0.00 in0.0 mm 0.22 in5.6 mm
06:26 AM 48.6°F9.2°C 40.6°F4.8°C 74% 5.0 mph N8.0 kmh N 16.0 mph25.7 kmh 29.94 in1013.9 mb 0.03 in0.8 mm 0.09 in2.3 mm 0.23 in5.8 mm
06:33 AM 48.6°F9.2°C 40.6°F4.8°C 74% 7.0 mph N11.3 kmh N 16.0 mph25.7 kmh 29.93 in1013.5 mb 0.02 in0.5 mm 0.00 in0.0 mm 0.23 in5.8 mm
06:40 AM 48.7°F9.3°C 40.8°F4.9°C 74% 7.0 mph N11.3 kmh N 16.0 mph25.7 kmh 29.93 in1013.5 mb 0.02 in0.5 mm 0.00 in0.0 mm 0.23 in5.8 mm
06:47 AM 48.7°F9.3°C 40.8°F4.9°C 74% 5.0 mph N8.0 kmh N 16.0 mph25.7 kmh 29.94 in1013.9 mb 0.02 in0.5 mm 0.00 in0.0 mm 0.23 in5.8 mm
06:54 AM 48.9°F9.4°C 41.0°F5.0°C 74% 7.0 mph N11.3 kmh N 13.0 mph20.9 kmh 29.93 in1013.5 mb 0.02 in0.5 mm 0.00 in0.0 mm 0.23 in5.8 mm
07:01 AM 48.9°F9.4°C 41.0°F5.0°C 74% 8.0 mph N12.9 kmh N 20.0 mph32.2 kmh 29.92 in1013.2 mb 0.02 in0.5 mm 0.00 in0.0 mm 0.23 in5.8 mm
07:08 AM 48.9°F9.4°C 41.0°F5.0°C 74% 9.0 mph N14.5 kmh N 20.0 mph32.2 kmh 29.92 in1013.2 mb 0.02 in0.5 mm 0.00 in0.0 mm 0.23 in5.8 mm
07:15 AM 48.9°F9.4°C 41.0°F5.0°C 74% 9.0 mph N14.5 kmh N 21.0 mph33.8 kmh 29.92 in1013.2 mb 0.01 in0.3 mm 0.00 in0.0 mm 0.23 in5.8 mm
07:22 AM 48.9°F9.4°C 41.0°F5.0°C 74% 8.0 mph N12.9 kmh N 17.0 mph27.4 kmh 29.92 in1013.2 mb 0.01 in0.3 mm 0.00 in0.0 mm 0.23 in5.8 mm
07:29 AM 49.1°F9.5°C 41.2°F5.1°C 74% 7.0 mph N11.3 kmh N 13.0 mph20.9 kmh 29.91 in1012.9 mb 0.00 in0.0 mm 0.00 in0.0 mm 0.23 in5.8 mm
07:36 AM 49.1°F9.5°C 41.2°F5.1°C 74% 7.0 mph N11.3 kmh N 16.0 mph25.7 kmh 29.91 in1012.9 mb 0.00 in0.0 mm 0.00 in0.0 mm 0.23 in5.8 mm
07:43 AM 49.1°F9.5°C 40.8°F4.9°C 73% 7.0 mph N11.3 kmh N 15.0 mph24.1 kmh 29.91 in1012.9 mb 0.00 in0.0 mm 0.00 in0.0 mm 0.23 in5.8 mm
07:50 AM 49.3°F9.6°C 41.2°F5.1°C 74% 5.0 mph N8.0 kmh N 19.0 mph30.6 kmh 29.91 in1012.9 mb 0.00 in0.0 mm 0.00 in0.0 mm 0.23 in5.8 mm
07:57 AM 48.9°F9.4°C 40.6°F4.8°C 73% 8.0 mph N12.9 kmh N 20.0 mph32.2 kmh 29.91 in1012.9 mb 0.03 in0.8 mm 0.26 in6.6 mm 0.26 in6.6 mm
08:04 AM 49.1°F9.5°C 40.8°F4.9°C 73% 8.0 mph N12.9 kmh N 20.0 mph32.2 kmh 29.90 in1012.5 mb 0.03 in0.8 mm 0.00 in0.0 mm 0.26 in6.6 mm
08:11 AM 48.9°F9.4°C 40.6°F4.8°C 73% 5.0 mph N8.0 kmh N 16.0 mph25.7 kmh 29.91 in1012.9 mb 0.03 in0.8 mm 0.00 in0.0 mm 0.26 in6.6 mm
08:18 AM 48.9°F9.4°C 40.6°F4.8°C 73% 7.0 mph N11.3 kmh N 16.0 mph25.7 kmh 29.90 in1012.5 mb 0.03 in0.8 mm 0.00 in0.0 mm 0.26 in6.6 mm
08:25 AM 48.9°F9.4°C 41.0°F5.0°C 74% 7.0 mph N11.3 kmh N 17.0 mph27.4 kmh 29.91 in1012.9 mb 0.03 in0.8 mm 0.00 in0.0 mm 0.26 in6.6 mm
08:32 AM 48.9°F9.4°C 41.0°F5.0°C 74% 8.0 mph N12.9 kmh N 17.0 mph27.4 kmh 29.90 in1012.5 mb 0.03 in0.8 mm 0.00 in0.0 mm 0.26 in6.6 mm
08:39 AM 48.7°F9.3°C 40.8°F4.9°C 74% 8.0 mph N12.9 kmh N 20.0 mph32.2 kmh 29.90 in1012.5 mb 0.04 in1.0 mm 0.09 in2.3 mm 0.27 in6.9 mm
08:46 AM 48.7°F9.3°C 40.8°F4.9°C 74% 7.0 mph N11.3 kmh N 20.0 mph32.2 kmh 29.90 in1012.5 mb 0.04 in1.0 mm 0.00 in0.0 mm 0.27 in6.9 mm
08:53 AM 48.7°F9.3°C 41.2°F5.1°C 75% 5.0 mph N8.0 kmh N 13.0 mph20.9 kmh 29.90 in1012.5 mb 0.04 in1.0 mm 0.00 in0.0 mm 0.27 in6.9 mm
09:00 AM 48.7°F9.3°C 41.2°F5.1°C 75% 5.0 mph N8.0 kmh N 13.0 mph20.9 kmh 29.90 in1012.5 mb 0.01 in0.3 mm 0.00 in0.0 mm 0.27 in6.9 mm
09:07 AM 48.7°F9.3°C 41.2°F5.1°C 75% 7.0 mph N11.3 kmh N 13.0 mph20.9 kmh 29.89 in1012.2 mb 0.02 in0.5 mm 0.09 in2.3 mm 0.28 in7.1 mm
09:14 AM 48.7°F9.3°C 41.2°F5.1°C 75% 7.0 mph N11.3 kmh N 15.0 mph24.1 kmh 29.89 in1012.2 mb 0.02 in0.5 mm 0.00 in0.0 mm 0.28 in7.1 mm
09:21 AM 48.7°F9.3°C 41.2°F5.1°C 75% 5.0 mph N8.0 kmh N 17.0 mph27.4 kmh 29.90 in1012.5 mb 0.02 in0.5 mm 0.00 in0.0 mm 0.28 in7.1 mm
09:28 AM 48.9°F9.4°C 41.4°F5.2°C 75% 7.0 mph N11.3 kmh N 17.0 mph27.4 kmh 29.89 in1012.2 mb 0.02 in0.5 mm 0.00 in0.0 mm 0.28 in7.1 mm
09:35 AM 48.9°F9.4°C 41.4°F5.2°C 75% 7.0 mph N11.3 kmh N 20.0 mph32.2 kmh 29.89 in1012.2 mb 0.01 in0.3 mm 0.00 in0.0 mm 0.28 in7.1 mm
09:42 AM 49.1°F9.5°C 41.5°F5.3°C 75% 5.0 mph N8.0 kmh N 15.0 mph24.1 kmh 29.90 in1012.5 mb 0.01 in0.3 mm 0.00 in0.0 mm 0.28 in7.1 mm
09:49 AM 49.3°F9.6°C 41.5°F5.3°C 75% 7.0 mph N11.3 kmh N 13.0 mph20.9 kmh 29.89 in1012.2 mb 0.01 in0.3 mm 0.00 in0.0 mm 0.28 in7.1 mm
09:56 AM 49.3°F9.6°C 41.5°F5.3°C 75% 7.0 mph N11.3 kmh N 15.0 mph24.1 kmh 29.89 in1012.2 mb 0.01 in0.3 mm 0.00 in0.0 mm 0.28 in7.1 mm
10:03 AM 49.3°F9.6°C 41.7°F5.4°C 75% 5.0 mph N8.0 kmh N 16.0 mph25.7 kmh 29.89 in1012.2 mb 0.00 in0.0 mm 0.00 in0.0 mm 0.28 in7.1 mm
10:10 AM 49.6°F9.8°C 42.1°F5.6°C 75% 7.0 mph N11.3 kmh N 17.0 mph27.4 kmh 29.88 in1011.9 mb 0.00 in0.0 mm 0.00 in0.0 mm 0.28 in7.1 mm
10:17 AM 49.8°F9.9°C 42.3°F5.7°C 75% 7.0 mph N11.3 kmh N 17.0 mph27.4 kmh 29.88 in1011.9 mb 0.00 in0.0 mm 0.00 in0.0 mm 0.28 in7.1 mm
10:24 AM 50.0°F10.0°C 42.4°F5.8°C 75% 5.0 mph N8.0 kmh N 16.0 mph25.7 kmh 29.88 in1011.9 mb 0.00 in0.0 mm 0.00 in0.0 mm 0.28 in7.1 mm
10:31 AM 49.8°F9.9°C 42.3°F5.7°C 75% 7.0 mph N11.3 kmh N 16.0 mph25.7 kmh 29.88 in1011.9 mb 0.00 in0.0 mm 0.00 in0.0 mm 0.28 in7.1 mm
10:38 AM 50.2°F10.1°C 42.4°F5.8°C 75% 7.0 mph N11.3 kmh N 13.0 mph20.9 kmh 29.87 in1011.5 mb 0.00 in0.0 mm 0.00 in0.0 mm 0.28 in7.1 mm
10:45 AM 50.4°F10.2°C 42.8°F6.0°C 75% 5.0 mph N8.0 kmh N 12.0 mph19.3 kmh 29.88 in1011.9 mb 0.00 in0.0 mm 0.00 in0.0 mm 0.28 in7.1 mm
10:52 AM 50.2°F10.1°C 42.3°F5.7°C 74% 4.0 mph N6.4 kmh N 15.0 mph24.1 kmh 29.87 in1011.5 mb 0.00 in0.0 mm 0.00 in0.0 mm 0.28 in7.1 mm
10:59 AM 50.5°F10.3°C 42.4°F5.8°C 74% 7.0 mph N11.3 kmh N 15.0 mph24.1 kmh 29.87 in1011.5 mb 0.00 in0.0 mm 0.00 in0.0 mm 0.28 in7.1 mm
11:06 AM 50.5°F10.3°C 42.4°F5.8°C 74% 5.0 mph N8.0 kmh N 15.0 mph24.1 kmh 29.87 in1011.5 mb 0.00 in0.0 mm 0.00 in0.0 mm 0.28 in7.1 mm
11:13 AM 50.5°F10.3°C 42.4°F5.8°C 74% 5.0 mph N8.0 kmh N 15.0 mph24.1 kmh 29.87 in1011.5 mb 0.00 in0.0 mm 0.00 in0.0 mm 0.28 in7.1 mm
11:20 AM 50.9°F10.5°C 43.0°F6.1°C 74% 5.0 mph N8.0 kmh N 13.0 mph20.9 kmh 29.86 in1011.2 mb 0.00 in0.0 mm 0.00 in0.0 mm 0.28 in7.1 mm
11:27 AM 51.3°F10.7°C 43.2°F6.2°C 74% 5.0 mph N8.0 kmh N 13.0 mph20.9 kmh 29.86 in1011.2 mb 0.00 in0.0 mm 0.00 in0.0 mm 0.28 in7.1 mm
11:34 AM 51.3°F10.7°C 43.2°F6.2°C 74% 5.0 mph N8.0 kmh N 13.0 mph20.9 kmh 29.86 in1011.2 mb 0.00 in0.0 mm 0.00 in0.0 mm 0.28 in7.1 mm
11:41 AM 51.4°F10.8°C 43.5°F6.4°C 74% 5.0 mph N8.0 kmh N 12.0 mph19.3 kmh 29.86 in1011.2 mb 0.00 in0.0 mm 0.00 in0.0 mm 0.28 in7.1 mm
11:48 AM 51.6°F10.9°C 43.7°F6.5°C 74% 4.0 mph N6.4 kmh N 9.0 mph14.5 kmh 29.86 in1011.2 mb 0.00 in0.0 mm 0.00 in0.0 mm 0.28 in7.1 mm
11:55 AM 51.6°F10.9°C 43.7°F6.5°C 74% 4.0 mph N6.4 kmh N 9.0 mph14.5 kmh 29.86 in1011.2 mb 0.00 in0.0 mm 0.00 in0.0 mm 0.28 in7.1 mm
12:02 PM 52.0°F11.1°C 43.9°F6.6°C 74% 4.0 mph N6.4 kmh N 13.0 mph20.9 kmh 29.86 in1011.2 mb 0.00 in0.0 mm 0.00 in0.0 mm 0.28 in7.1 mm
12:09 PM 52.0°F11.1°C 43.9°F6.6°C 74% 4.0 mph N6.4 kmh N 9.0 mph14.5 kmh 29.86 in1011.2 mb 0.00 in0.0 mm 0.00 in0.0 mm 0.28 in7.1 mm
12:16 PM 52.0°F11.1°C 43.9°F6.6°C 74% 5.0 mph N8.0 kmh N 9.0 mph14.5 kmh 29.86 in1011.2 mb 0.00 in0.0 mm 0.00 in0.0 mm 0.28 in7.1 mm
12:23 PM 52.2°F11.2°C 44.2°F6.8°C 74% 4.0 mph N6.4 kmh N 9.0 mph14.5 kmh 29.85 in1010.8 mb 0.00 in0.0 mm 0.00 in0.0 mm 0.28 in7.1 mm
12:30 PM 52.5°F11.4°C 44.4°F6.9°C 74% 4.0 mph N6.4 kmh N 9.0 mph14.5 kmh 29.85 in1010.8 mb 0.00 in0.0 mm 0.00 in0.0 mm 0.28 in7.1 mm
12:37 PM 52.5°F11.4°C 44.4°F6.9°C 74% 3.0 mph N4.8 kmh N 8.0 mph12.9 kmh 29.85 in1010.8 mb 0.00 in0.0 mm 0.00 in0.0 mm 0.28 in7.1 mm
12:44 PM 52.5°F11.4°C 44.6°F7.0°C 74% 3.0 mph N4.8 kmh N 9.0 mph14.5 kmh 29.85 in1010.8 mb 0.00 in0.0 mm 0.00 in0.0 mm 0.28 in7.1 mm
12:51 PM 52.5°F11.4°C 44.6°F7.0°C 74% 4.0 mph N6.4 kmh N 8.0 mph12.9 kmh 29.85 in1010.8 mb 0.00 in0.0 mm 0.00 in0.0 mm 0.28 in7.1 mm
12:58 PM 52.7°F11.5°C 44.6°F7.0°C 74% 3.0 mph N4.8 kmh N 8.0 mph12.9 kmh 29.85 in1010.8 mb 0.00 in0.0 mm 0.00 in0.0 mm 0.28 in7.1 mm
01:05 PM 52.5°F11.4°C 45.0°F7.2°C 75% 3.0 mph N4.8 kmh N 8.0 mph12.9 kmh 29.85 in1010.8 mb 0.00 in0.0 mm 0.00 in0.0 mm 0.28 in7.1 mm
01:12 PM 52.9°F11.6°C 45.1°F7.3°C 75% 1.0 mph N1.6 kmh N 4.0 mph6.4 kmh 29.85 in1010.8 mb 0.00 in0.0 mm 0.00 in0.0 mm 0.28 in7.1 mm
01:19 PM 52.9°F11.6°C 45.1°F7.3°C 75% 3.0 mph N4.8 kmh N 7.0 mph11.3 kmh 29.85 in1010.8 mb 0.00 in0.0 mm 0.00 in0.0 mm 0.28 in7.1 mm
01:26 PM 52.9°F11.6°C 45.1°F7.3°C 75% 3.0 mph N4.8 kmh N 7.0 mph11.3 kmh 29.85 in1010.8 mb 0.00 in0.0 mm 0.00 in0.0 mm 0.28 in7.1 mm
01:33 PM 52.7°F11.5°C 45.0°F7.2°C 75% 3.0 mph N4.8 kmh N 7.0 mph11.3 kmh 29.85 in1010.8 mb 0.00 in0.0 mm 0.00 in0.0 mm 0.28 in7.1 mm
01:40 PM 52.7°F11.5°C 45.0°F7.2°C 75% 1.0 mph N1.6 kmh N 5.0 mph8.0 kmh 29.85 in1010.8 mb 0.00 in0.0 mm 0.00 in0.0 mm 0.28 in7.1 mm
01:47 PM 52.7°F11.5°C 45.0°F7.2°C 75% 1.0 mph N1.6 kmh N 4.0 mph6.4 kmh 29.85 in1010.8 mb 0.00 in0.0 mm 0.00 in0.0 mm 0.28 in7.1 mm
01:54 PM 52.9°F11.6°C 45.1°F7.3°C 75% 1.0 mph N1.6 kmh N 4.0 mph6.4 kmh 29.85 in1010.8 mb 0.00 in0.0 mm 0.00 in0.0 mm 0.28 in7.1 mm
02:01 PM 53.1°F11.7°C 45.3°F7.4°C 75% Calm Calm 5.0 mph8.0 kmh 29.85 in1010.8 mb 0.00 in0.0 mm 0.00 in0.0 mm 0.28 in7.1 mm
02:08 PM 53.2°F11.8°C 45.9°F7.7°C 76% 1.0 mph N1.6 kmh N 5.0 mph8.0 kmh 29.85 in1010.8 mb 0.00 in0.0 mm 0.00 in0.0 mm 0.28 in7.1 mm
02:15 PM 53.1°F11.7°C 45.3°F7.4°C 75% Calm Calm 4.0 mph6.4 kmh 29.85 in1010.8 mb 0.00 in0.0 mm 0.00 in0.0 mm 0.28 in7.1 mm
02:22 PM 53.2°F11.8°C 45.9°F7.7°C 76% Calm Calm 4.0 mph6.4 kmh 29.86 in1011.2 mb 0.00 in0.0 mm 0.00 in0.0 mm 0.28 in7.1 mm
02:29 PM 53.4°F11.9°C 46.0°F7.8°C 76% Calm Calm 4.0 mph6.4 kmh 29.86 in1011.2 mb 0.00 in0.0 mm 0.00 in0.0 mm 0.28 in7.1 mm
02:36 PM 53.6°F12.0°C 46.2°F7.9°C 76% Calm Calm 3.0 mph4.8 kmh 29.86 in1011.2 mb 0.00 in0.0 mm 0.00 in0.0 mm 0.28 in7.1 mm
02:43 PM 53.4°F11.9°C 46.0°F7.8°C 76% Calm Calm 1.0 mph1.6 kmh 29.86 in1011.2 mb 0.00 in0.0 mm 0.00 in0.0 mm 0.28 in7.1 mm
02:50 PM 54.0°F12.2°C 46.6°F8.1°C 76% Calm Calm 3.0 mph4.8 kmh 29.86 in1011.2 mb 0.00 in0.0 mm 0.00 in0.0 mm 0.28 in7.1 mm
02:57 PM 53.8°F12.1°C 46.4°F8.0°C 76% Calm Calm 3.0 mph4.8 kmh 29.86 in1011.2 mb 0.00 in0.0 mm 0.00 in0.0 mm 0.28 in7.1 mm
03:04 PM 53.8°F12.1°C 46.4°F8.0°C 76% Calm Calm 1.0 mph1.6 kmh 29.86 in1011.2 mb 0.00 in0.0 mm 0.00 in0.0 mm 0.28 in7.1 mm
03:11 PM 53.6°F12.0°C 46.2°F7.9°C 76% Calm Calm 1.0 mph1.6 kmh 29.87 in1011.5 mb 0.00 in0.0 mm 0.00 in0.0 mm 0.28 in7.1 mm
03:18 PM 53.6°F12.0°C 46.2°F7.9°C 76% Calm Calm 3.0 mph4.8 kmh 29.87 in1011.5 mb 0.00 in0.0 mm 0.00 in0.0 mm 0.28 in7.1 mm
03:25 PM 53.8°F12.1°C 46.4°F8.0°C 76% Calm Calm 3.0 mph4.8 kmh 29.87 in1011.5 mb 0.01 in0.3 mm 0.09 in2.3 mm 0.28 in7.1 mm
03:32 PM 53.8°F12.1°C 46.4°F8.0°C 76% Calm Calm 5.0 mph8.0 kmh 29.87 in1011.5 mb 0.01 in0.3 mm 0.00 in0.0 mm 0.28 in7.1 mm
03:39 PM 53.8°F12.1°C 46.4°F8.0°C 76% 1.0 mph N1.6 kmh N 4.0 mph6.4 kmh 29.87 in1011.5 mb 0.01 in0.3 mm 0.00 in0.0 mm 0.28 in7.1 mm
03:46 PM 53.8°F12.1°C 46.4°F8.0°C 76% 1.0 mph N1.6 kmh N 5.0 mph8.0 kmh 29.87 in1011.5 mb 0.01 in0.3 mm 0.00 in0.0 mm 0.28 in7.1 mm
03:53 PM 54.0°F12.2°C 46.6°F8.1°C 76% 1.0 mph N1.6 kmh N 5.0 mph8.0 kmh 29.87 in1011.5 mb 0.01 in0.3 mm 0.00 in0.0 mm 0.28 in7.1 mm
04:00 PM 54.1°F12.3°C 46.8°F8.2°C 76% Calm Calm 4.0 mph6.4 kmh 29.87 in1011.5 mb 0.01 in0.3 mm 0.00 in0.0 mm 0.28 in7.1 mm
04:07 PM 54.3°F12.4°C 46.9°F8.3°C 76% 1.0 mph N1.6 kmh N 5.0 mph8.0 kmh 29.87 in1011.5 mb 0.01 in0.3 mm 0.00 in0.0 mm 0.28 in7.1 mm
04:14 PM 54.5°F12.5°C 47.1°F8.4°C 76% 1.0 mph N1.6 kmh N 4.0 mph6.4 kmh 29.87 in1011.5 mb 0.01 in0.3 mm 0.00 in0.0 mm 0.28 in7.1 mm
04:21 PM 54.7°F12.6°C 47.3°F8.5°C 76% 1.0 mph N1.6 kmh N 4.0 mph6.4 kmh 29.87 in1011.5 mb 0.01 in0.3 mm 0.00 in0.0 mm 0.28 in7.1 mm
04:28 PM 54.9°F12.7°C 47.5°F8.6°C 76% 1.0 mph N1.6 kmh N 7.0 mph11.3 kmh 29.88 in1011.9 mb 0.00 in0.0 mm 0.00 in0.0 mm 0.28 in7.1 mm
04:35 PM 55.0°F12.8°C 47.7°F8.7°C 76% 3.0 mph N4.8 kmh N 8.0 mph12.9 kmh 29.89 in1012.2 mb 0.00 in0.0 mm 0.00 in0.0 mm 0.28 in7.1 mm
04:42 PM 55.2°F12.9°C 47.8°F8.8°C 76% 4.0 mph N6.4 kmh N 12.0 mph19.3 kmh 29.89 in1012.2 mb 0.00 in0.0 mm 0.00 in0.0 mm 0.28 in7.1 mm
04:49 PM 55.4°F13.0°C 48.0°F8.9°C 76% 4.0 mph N6.4 kmh N 9.0 mph14.5 kmh 29.89 in1012.2 mb 0.00 in0.0 mm 0.00 in0.0 mm 0.28 in7.1 mm
04:56 PM 55.8°F13.2°C 48.2°F9.0°C 76% 4.0 mph N6.4 kmh N 13.0 mph20.9 kmh 29.89 in1012.2 mb 0.00 in0.0 mm 0.00 in0.0 mm 0.28 in7.1 mm
05:03 PM 55.9°F13.3°C 48.6°F9.2°C 76% 5.0 mph N8.0 kmh N 13.0 mph20.9 kmh 29.90 in1012.5 mb 0.00 in0.0 mm 0.00 in0.0 mm 0.28 in7.1 mm
05:10 PM 56.1°F13.4°C 48.7°F9.3°C 76% 4.0 mph N6.4 kmh N 9.0 mph14.5 kmh 29.90 in1012.5 mb 0.00 in0.0 mm 0.00 in0.0 mm 0.28 in7.1 mm
05:17 PM 56.3°F13.5°C 48.9°F9.4°C 76% 4.0 mph N6.4 kmh N 13.0 mph20.9 kmh 29.90 in1012.5 mb 0.00 in0.0 mm 0.00 in0.0 mm 0.28 in7.1 mm
05:24 PM 56.5°F13.6°C 49.1°F9.5°C 76% 4.0 mph N6.4 kmh N 13.0 mph20.9 kmh 29.90 in1012.5 mb 0.00 in0.0 mm 0.00 in0.0 mm 0.28 in7.1 mm
05:31 PM 56.5°F13.6°C 48.7°F9.3°C 75% 4.0 mph N6.4 kmh N 12.0 mph19.3 kmh 29.90 in1012.5 mb 0.00 in0.0 mm 0.00 in0.0 mm 0.28 in7.1 mm
05:38 PM 56.5°F13.6°C 48.7°F9.3°C 75% 5.0 mph N8.0 kmh N 9.0 mph14.5 kmh 29.89 in1012.2 mb 0.00 in0.0 mm 0.00 in0.0 mm 0.28 in7.1 mm
05:45 PM 56.5°F13.6°C 48.6°F9.2°C 75% 4.0 mph N6.4 kmh N 8.0 mph12.9 kmh 29.89 in1012.2 mb 0.00 in0.0 mm 0.00 in0.0 mm 0.28 in7.1 mm
05:52 PM 56.3°F13.5°C 48.6°F9.2°C 75% 4.0 mph N6.4 kmh N 8.0 mph12.9 kmh 29.90 in1012.5 mb 0.00 in0.0 mm 0.00 in0.0 mm 0.28 in7.1 mm
05:59 PM 56.1°F13.4°C 48.2°F9.0°C 75% 3.0 mph N4.8 kmh N 8.0 mph12.9 kmh 29.90 in1012.5 mb 0.00 in0.0 mm 0.00 in0.0 mm 0.28 in7.1 mm
06:06 PM 55.9°F13.3°C 48.2°F9.0°C 75% 3.0 mph N4.8 kmh N 8.0 mph12.9 kmh 29.91 in1012.9 mb 0.00 in0.0 mm 0.00 in0.0 mm 0.28 in7.1 mm
06:13 PM 55.9°F13.3°C 48.0°F8.9°C 75% 3.0 mph N4.8 kmh N 8.0 mph12.9 kmh 29.91 in1012.9 mb 0.00 in0.0 mm 0.00 in0.0 mm 0.28 in7.1 mm
06:20 PM 55.8°F13.2°C 48.0°F8.9°C 75% 3.0 mph N4.8 kmh N 7.0 mph11.3 kmh 29.91 in1012.9 mb 0.00 in0.0 mm 0.00 in0.0 mm 0.28 in7.1 mm
06:27 PM 55.6°F13.1°C 47.8°F8.8°C 75% 3.0 mph N4.8 kmh N 7.0 mph11.3 kmh 29.91 in1012.9 mb 0.00 in0.0 mm 0.00 in0.0 mm 0.28 in7.1 mm
06:34 PM 55.6°F13.1°C 47.7°F8.7°C 75% 1.0 mph N1.6 kmh N 4.0 mph6.4 kmh 29.92 in1013.2 mb 0.00 in0.0 mm 0.00 in0.0 mm 0.28 in7.1 mm
06:41 PM 55.2°F12.9°C 47.5°F8.6°C 75% Calm Calm 3.0 mph4.8 kmh 29.92 in1013.2 mb 0.00 in0.0 mm 0.00 in0.0 mm 0.28 in7.1 mm
06:48 PM 55.0°F12.8°C 47.3°F8.5°C 75% Calm Calm 1.0 mph1.6 kmh 29.92 in1013.2 mb 0.00 in0.0 mm 0.00 in0.0 mm 0.28 in7.1 mm
06:55 PM 55.0°F12.8°C 47.3°F8.5°C 75% Calm Calm -- 29.93 in1013.5 mb 0.00 in0.0 mm 0.00 in0.0 mm 0.28 in7.1 mm
07:02 PM 54.9°F12.7°C 47.1°F8.4°C 75% Calm Calm -- 29.93 in1013.5 mb 0.00 in0.0 mm 0.00 in0.0 mm 0.28 in7.1 mm
07:09 PM 55.0°F12.8°C 47.7°F8.7°C 76% Calm Calm -- 29.93 in1013.5 mb 0.00 in0.0 mm 0.00 in0.0 mm 0.28 in7.1 mm
07:16 PM 55.0°F12.8°C 47.7°F8.7°C 76% Calm Calm -- 29.93 in1013.5 mb 0.00 in0.0 mm 0.00 in0.0 mm 0.28 in7.1 mm
07:23 PM 55.0°F12.8°C 47.7°F8.7°C 76% Calm Calm -- 29.94 in1013.9 mb 0.00 in0.0 mm 0.00 in0.0 mm 0.28 in7.1 mm
07:30 PM 54.9°F12.7°C 47.3°F8.5°C 76% Calm Calm -- 29.94 in1013.9 mb 0.00 in0.0 mm 0.00 in0.0 mm 0.28 in7.1 mm
07:37 PM 54.7°F12.6°C 47.1°F8.4°C 76% Calm Calm -- 29.94 in1013.9 mb 0.00 in0.0 mm 0.00 in0.0 mm 0.28 in7.1 mm
07:44 PM 54.3°F12.4°C 46.9°F8.3°C 76% Calm Calm -- 29.94 in1013.9 mb 0.00 in0.0 mm 0.00 in0.0 mm 0.28 in7.1 mm
07:51 PM 54.1°F12.3°C 46.8°F8.2°C 76% Calm Calm -- 29.94 in1013.9 mb 0.00 in0.0 mm 0.00 in0.0 mm 0.28 in7.1 mm
07:58 PM 54.3°F12.4°C 46.9°F8.3°C 76% Calm Calm -- 29.95 in1014.2 mb 0.00 in0.0 mm 0.00 in0.0 mm 0.28 in7.1 mm
08:05 PM 54.3°F12.4°C 46.9°F8.3°C 76% Calm Calm -- 29.95 in1014.2 mb 0.00 in0.0 mm 0.00 in0.0 mm 0.28 in7.1 mm
08:12 PM 54.5°F12.5°C 47.1°F8.4°C 76% Calm Calm 3.0 mph4.8 kmh 29.95 in1014.2 mb 0.00 in0.0 mm 0.00 in0.0 mm 0.28 in7.1 mm
08:19 PM 54.7°F12.6°C 47.3°F8.5°C 76% Calm Calm 3.0 mph4.8 kmh 29.95 in1014.2 mb 0.00 in0.0 mm 0.00 in0.0 mm 0.28 in7.1 mm
08:26 PM 54.9°F12.7°C 47.5°F8.6°C 76% Calm Calm 4.0 mph6.4 kmh 29.95 in1014.2 mb 0.00 in0.0 mm 0.00 in0.0 mm 0.28 in7.1 mm
08:33 PM 54.9°F12.7°C 47.5°F8.6°C 76% 1.0 mph N1.6 kmh N 4.0 mph6.4 kmh 29.95 in1014.2 mb 0.00 in0.0 mm 0.00 in0.0 mm 0.28 in7.1 mm
08:40 PM 55.0°F12.8°C 47.7°F8.7°C 76% 3.0 mph N4.8 kmh N 5.0 mph8.0 kmh 29.96 in1014.6 mb 0.00 in0.0 mm 0.00 in0.0 mm 0.28 in7.1 mm
08:47 PM 55.0°F12.8°C 47.7°F8.7°C 76% 1.0 mph N1.6 kmh N 4.0 mph6.4 kmh 29.96 in1014.6 mb 0.00 in0.0 mm 0.00 in0.0 mm 0.28 in7.1 mm
08:54 PM 55.2°F12.9°C 47.8°F8.8°C 76% 1.0 mph N1.6 kmh N 4.0 mph6.4 kmh 29.96 in1014.6 mb 0.00 in0.0 mm 0.00 in0.0 mm 0.28 in7.1 mm
09:01 PM 55.2°F12.9°C 47.8°F8.8°C 76% 1.0 mph N1.6 kmh N 5.0 mph8.0 kmh 29.96 in1014.6 mb 0.00 in0.0 mm 0.00 in0.0 mm 0.28 in7.1 mm
09:08 PM 55.4°F13.0°C 48.0°F8.9°C 76% 1.0 mph N1.6 kmh N 4.0 mph6.4 kmh 29.96 in1014.6 mb 0.00 in0.0 mm 0.00 in0.0 mm 0.28 in7.1 mm
09:15 PM 55.6°F13.1°C 48.0°F8.9°C 76% 1.0 mph N1.6 kmh N 3.0 mph4.8 kmh 29.96 in1014.6 mb 0.00 in0.0 mm 0.00 in0.0 mm 0.28 in7.1 mm
09:22 PM 55.6°F13.1°C 48.2°F9.0°C 76% 1.0 mph N1.6 kmh N 5.0 mph8.0 kmh 29.96 in1014.6 mb 0.00 in0.0 mm 0.00 in0.0 mm 0.28 in7.1 mm
09:29 PM 55.9°F13.3°C 48.4°F9.1°C 76% 3.0 mph N4.8 kmh N 8.0 mph12.9 kmh 29.96 in1014.6 mb 0.00 in0.0 mm 0.00 in0.0 mm 0.28 in7.1 mm
09:36 PM 56.5°F13.6°C 48.6°F9.2°C 75% 5.0 mph N8.0 kmh N 12.0 mph19.3 kmh 29.97 in1014.9 mb 0.00 in0.0 mm 0.00 in0.0 mm 0.28 in7.1 mm
09:43 PM 56.7°F13.7°C 48.6°F9.2°C 74% 4.0 mph N6.4 kmh N 12.0 mph19.3 kmh 29.97 in1014.9 mb 0.00 in0.0 mm 0.00 in0.0 mm 0.28 in7.1 mm
09:50 PM 56.8°F13.8°C 48.2°F9.0°C 73% 4.0 mph N6.4 kmh N 12.0 mph19.3 kmh 29.97 in1014.9 mb 0.00 in0.0 mm 0.00 in0.0 mm 0.28 in7.1 mm
09:57 PM 56.8°F13.8°C 48.4°F9.1°C 73% 4.0 mph N6.4 kmh N 16.0 mph25.7 kmh 29.98 in1015.2 mb 0.00 in0.0 mm 0.00 in0.0 mm 0.28 in7.1 mm
10:04 PM 56.8°F13.8°C 48.0°F8.9°C 72% 5.0 mph N8.0 kmh N 16.0 mph25.7 kmh 29.98 in1015.2 mb 0.00 in0.0 mm 0.00 in0.0 mm 0.28 in7.1 mm
10:11 PM 56.8°F13.8°C 48.0°F8.9°C 72% 5.0 mph N8.0 kmh N 13.0 mph20.9 kmh 29.99 in1015.6 mb 0.00 in0.0 mm 0.00 in0.0 mm 0.28 in7.1 mm
10:18 PM 56.7°F13.7°C 47.5°F8.6°C 71% 5.0 mph N8.0 kmh N 12.0 mph19.3 kmh 29.99 in1015.6 mb 0.00 in0.0 mm 0.00 in0.0 mm 0.28 in7.1 mm
10:25 PM 56.5°F13.6°C 47.1°F8.4°C 71% 4.0 mph N6.4 kmh N 12.0 mph19.3 kmh 29.99 in1015.6 mb 0.00 in0.0 mm 0.00 in0.0 mm 0.28 in7.1 mm
10:32 PM 56.3°F13.5°C 46.9°F8.3°C 71% 4.0 mph N6.4 kmh N 12.0 mph19.3 kmh 29.99 in1015.6 mb 0.00 in0.0 mm 0.00 in0.0 mm 0.28 in7.1 mm
10:39 PM 56.1°F13.4°C 46.8°F8.2°C 71% 4.0 mph N6.4 kmh N 9.0 mph14.5 kmh 29.99 in1015.6 mb 0.00 in0.0 mm 0.00 in0.0 mm 0.28 in7.1 mm
10:46 PM 56.1°F13.4°C 46.8°F8.2°C 71% 4.0 mph N6.4 kmh N 12.0 mph19.3 kmh 29.99 in1015.6 mb 0.00 in0.0 mm 0.00 in0.0 mm 0.28 in7.1 mm
10:53 PM 55.9°F13.3°C 46.6°F8.1°C 71% 4.0 mph N6.4 kmh N 9.0 mph14.5 kmh 29.99 in1015.6 mb 0.00 in0.0 mm 0.00 in0.0 mm 0.28 in7.1 mm
11:00 PM 55.8°F13.2°C 46.6°F8.1°C 71% 4.0 mph N6.4 kmh N 8.0 mph12.9 kmh 29.99 in1015.6 mb 0.00 in0.0 mm 0.00 in0.0 mm 0.24 in6.1 mm
11:07 PM 55.6°F13.1°C 46.4°F8.0°C 71% 4.0 mph N6.4 kmh N 12.0 mph19.3 kmh 29.99 in1015.6 mb 0.00 in0.0 mm 0.00 in0.0 mm 0.24 in6.1 mm
11:14 PM 55.6°F13.1°C 46.2°F7.9°C 71% 4.0 mph N6.4 kmh N 9.0 mph14.5 kmh 30.00 in1015.9 mb 0.00 in0.0 mm 0.00 in0.0 mm 0.24 in6.1 mm
11:21 PM 55.4°F13.0°C 45.9°F7.7°C 70% 4.0 mph N6.4 kmh N 8.0 mph12.9 kmh 29.99 in1015.6 mb 0.00 in0.0 mm 0.00 in0.0 mm 0.24 in6.1 mm
11:28 PM 55.2°F12.9°C 45.7°F7.6°C 70% 4.0 mph N6.4 kmh N 12.0 mph19.3 kmh 30.00 in1015.9 mb 0.00 in0.0 mm 0.00 in0.0 mm 0.24 in6.1 mm
11:35 PM 55.0°F12.8°C 45.3°F7.4°C 70% 4.0 mph N6.4 kmh N 13.0 mph20.9 kmh 30.00 in1015.9 mb 0.00 in0.0 mm 0.00 in0.0 mm 0.24 in6.1 mm
11:42 PM 55.0°F12.8°C 45.3°F7.4°C 70% 3.0 mph N4.8 kmh N 12.0 mph19.3 kmh 30.00 in1015.9 mb 0.00 in0.0 mm 0.00 in0.0 mm 0.24 in6.1 mm
11:49 PM 54.9°F12.7°C 45.3°F7.4°C 70% 4.0 mph N6.4 kmh N 12.0 mph19.3 kmh 30.00 in1015.9 mb 0.00 in0.0 mm 0.00 in0.0 mm 0.24 in6.1 mm
11:56 PM 54.9°F12.7°C 45.3°F7.4°C 70% 4.0 mph N6.4 kmh N 8.0 mph12.9 kmh 30.00 in1015.9 mb 0.00 in0.0 mm 0.00 in0.0 mm 0.24 in6.1 mm